sensor_id;sensor_type;location;lat;lon;timestamp;P1;durP1;ratioP1;P2;durP2;ratioP2
51764;SDS011;37835;53.256;6.456;2023-04-23T00:00:19;36.63;;;26.10;;
51764;SDS011;37835;53.256;6.456;2023-04-23T00:02:46;34.30;;;24.48;;
51764;SDS011;37835;53.256;6.456;2023-04-23T00:05:16;35.67;;;24.95;;
51764;SDS011;37835;53.256;6.456;2023-04-23T00:07:43;37.30;;;25.50;;
51764;SDS011;37835;53.256;6.456;2023-04-23T00:10:09;34.75;;;24.58;;
51764;SDS011;37835;53.256;6.456;2023-04-23T00:12:35;38.30;;;23.92;;
51764;SDS011;37835;53.256;6.456;2023-04-23T00:15:01;31.52;;;22.95;;
51764;SDS011;37835;53.256;6.456;2023-04-23T00:17:27;48.63;;;24.15;;
51764;SDS011;37835;53.256;6.456;2023-04-23T00:19:53;37.40;;;24.10;;
51764;SDS011;37835;53.256;6.456;2023-04-23T00:22:19;41.20;;;26.95;;
51764;SDS011;37835;53.256;6.456;2023-04-23T00:24:44;41.05;;;27.25;;
51764;SDS011;37835;53.256;6.456;2023-04-23T00:27:10;46.63;;;26.85;;
51764;SDS011;37835;53.256;6.456;2023-04-23T00:29:36;60.67;;;27.98;;
51764;SDS011;37835;53.256;6.456;2023-04-23T00:32:02;99.28;;;29.88;;
51764;SDS011;37835;53.256;6.456;2023-04-23T00:34:27;107.40;;;31.38;;
51764;SDS011;37835;53.256;6.456;2023-04-23T00:36:53;94.25;;;31.75;;
51764;SDS011;37835;53.256;6.456;2023-04-23T00:39:19;77.65;;;31.05;;
51764;SDS011;37835;53.256;6.456;2023-04-23T00:41:45;86.10;;;31.92;;
51764;SDS011;37835;53.256;6.456;2023-04-23T00:44:11;124.88;;;33.90;;
51764;SDS011;37835;53.256;6.456;2023-04-23T00:46:37;117.60;;;35.42;;
51764;SDS011;37835;53.256;6.456;2023-04-23T00:49:03;97.32;;;36.15;;
51764;SDS011;37835;53.256;6.456;2023-04-23T00:51:28;58.13;;;34.30;;
51764;SDS011;37835;53.256;6.456;2023-04-23T00:53:56;129.90;;;36.35;;
51764;SDS011;37835;53.256;6.456;2023-04-23T00:56:21;127.10;;;38.03;;
51764;SDS011;37835;53.256;6.456;2023-04-23T00:58:49;94.25;;;36.75;;
51764;SDS011;37835;53.256;6.456;2023-04-23T01:01:15;74.38;;;37.63;;
51764;SDS011;37835;53.256;6.456;2023-04-23T01:03:45;67.45;;;39.17;;
51764;SDS011;37835;53.256;6.456;2023-04-23T01:06:12;64.32;;;37.78;;
51764;SDS011;37835;53.256;6.456;2023-04-23T01:08:38;76.28;;;39.03;;
51764;SDS011;37835;53.256;6.456;2023-04-23T01:11:07;63.58;;;38.80;;
51764;SDS011;37835;53.256;6.456;2023-04-23T01:13:33;104.47;;;40.45;;
51764;SDS011;37835;53.256;6.456;2023-04-23T01:15:59;71.57;;;38.72;;
51764;SDS011;37835;53.256;6.456;2023-04-23T01:18:25;101.47;;;41.05;;
51764;SDS011;37835;53.256;6.456;2023-04-23T01:20:51;101.45;;;39.50;;
51764;SDS011;37835;53.256;6.456;2023-04-23T01:23:17;75.00;;;39.03;;
51764;SDS011;37835;53.256;6.456;2023-04-23T01:25:43;78.13;;;40.03;;
51764;SDS011;37835;53.256;6.456;2023-04-23T01:28:09;69.18;;;37.10;;
51764;SDS011;37835;53.256;6.456;2023-04-23T01:30:36;75.32;;;39.55;;
51764;SDS011;37835;53.256;6.456;2023-04-23T01:33:02;76.88;;;39.40;;
51764;SDS011;37835;53.256;6.456;2023-04-23T01:35:30;68.43;;;37.90;;
51764;SDS011;37835;53.256;6.456;2023-04-23T01:37:56;72.47;;;39.08;;
51764;SDS011;37835;53.256;6.456;2023-04-23T01:40:24;67.70;;;37.38;;
51764;SDS011;37835;53.256;6.456;2023-04-23T01:42:50;68.43;;;36.78;;
51764;SDS011;37835;53.256;6.456;2023-04-23T01:45:16;66.93;;;36.45;;
51764;SDS011;37835;53.256;6.456;2023-04-23T01:47:44;59.00;;;34.80;;
51764;SDS011;37835;53.256;6.456;2023-04-23T01:50:11;61.40;;;36.33;;
51764;SDS011;37835;53.256;6.456;2023-04-23T01:52:37;61.60;;;35.05;;
51764;SDS011;37835;53.256;6.456;2023-04-23T01:55:03;59.80;;;33.80;;
51764;SDS011;37835;53.256;6.456;2023-04-23T01:57:29;55.13;;;32.60;;
51764;SDS011;37835;53.256;6.456;2023-04-23T01:59:57;58.35;;;33.05;;
51764;SDS011;37835;53.256;6.456;2023-04-23T02:02:32;54.60;;;33.35;;
51764;SDS011;37835;53.256;6.456;2023-04-23T02:04:59;60.20;;;34.65;;
51764;SDS011;37835;53.256;6.456;2023-04-23T02:07:30;58.13;;;33.33;;
51764;SDS011;37835;53.256;6.456;2023-04-23T02:09:56;56.88;;;33.92;;
51764;SDS011;37835;53.256;6.456;2023-04-23T02:12:22;57.60;;;34.83;;
51764;SDS011;37835;53.256;6.456;2023-04-23T02:14:48;52.92;;;33.83;;
51764;SDS011;37835;53.256;6.456;2023-04-23T02:17:13;59.78;;;34.97;;
51764;SDS011;37835;53.256;6.456;2023-04-23T02:19:39;62.08;;;34.92;;
51764;SDS011;37835;53.256;6.456;2023-04-23T02:22:05;62.78;;;36.38;;
51764;SDS011;37835;53.256;6.456;2023-04-23T02:24:33;62.45;;;36.72;;
51764;SDS011;37835;53.256;6.456;2023-04-23T02:26:58;63.78;;;37.58;;
51764;SDS011;37835;53.256;6.456;2023-04-23T02:29:24;70.53;;;40.70;;
51764;SDS011;37835;53.256;6.456;2023-04-23T02:31:50;68.70;;;41.20;;
51764;SDS011;37835;53.256;6.456;2023-04-23T02:34:15;74.20;;;40.55;;
51764;SDS011;37835;53.256;6.456;2023-04-23T02:36:41;74.85;;;41.10;;
51764;SDS011;37835;53.256;6.456;2023-04-23T02:39:07;79.65;;;42.45;;
51764;SDS011;37835;53.256;6.456;2023-04-23T02:41:32;76.03;;;42.20;;
51764;SDS011;37835;53.256;6.456;2023-04-23T02:43:58;74.85;;;42.47;;
51764;SDS011;37835;53.256;6.456;2023-04-23T02:46:23;81.50;;;43.20;;
51764;SDS011;37835;53.256;6.456;2023-04-23T02:48:49;80.00;;;43.15;;
51764;SDS011;37835;53.256;6.456;2023-04-23T02:51:14;73.80;;;41.95;;
51764;SDS011;37835;53.256;6.456;2023-04-23T02:53:40;77.40;;;42.70;;
51764;SDS011;37835;53.256;6.456;2023-04-23T02:56:06;77.18;;;41.92;;
51764;SDS011;37835;53.256;6.456;2023-04-23T02:58:31;71.47;;;41.08;;
51764;SDS011;37835;53.256;6.456;2023-04-23T03:00:57;73.80;;;40.90;;
51764;SDS011;37835;53.256;6.456;2023-04-23T03:03:24;67.45;;;38.65;;
51764;SDS011;37835;53.256;6.456;2023-04-23T03:05:51;71.13;;;40.22;;
51764;SDS011;37835;53.256;6.456;2023-04-23T03:08:16;74.80;;;42.20;;
51764;SDS011;37835;53.256;6.456;2023-04-23T03:10:42;72.93;;;40.85;;
51764;SDS011;37835;53.256;6.456;2023-04-23T03:13:07;84.18;;;46.08;;
51764;SDS011;37835;53.256;6.456;2023-04-23T03:15:33;82.82;;;46.88;;
51764;SDS011;37835;53.256;6.456;2023-04-23T03:17:59;102.60;;;50.15;;
51764;SDS011;37835;53.256;6.456;2023-04-23T03:20:26;92.85;;;49.15;;
51764;SDS011;37835;53.256;6.456;2023-04-23T03:22:52;100.43;;;50.30;;
51764;SDS011;37835;53.256;6.456;2023-04-23T03:25:18;106.32;;;51.13;;
51764;SDS011;37835;53.256;6.456;2023-04-23T03:27:44;109.68;;;53.72;;
51764;SDS011;37835;53.256;6.456;2023-04-23T03:30:10;113.45;;;54.30;;
51764;SDS011;37835;53.256;6.456;2023-04-23T03:32:35;106.50;;;55.55;;
51764;SDS011;37835;53.256;6.456;2023-04-23T03:35:02;187.90;;;54.53;;
51764;SDS011;37835;53.256;6.456;2023-04-23T03:37:28;164.98;;;55.50;;
51764;SDS011;37835;53.256;6.456;2023-04-23T03:39:53;111.55;;;54.22;;
51764;SDS011;37835;53.256;6.456;2023-04-23T03:42:19;125.25;;;56.00;;
51764;SDS011;37835;53.256;6.456;2023-04-23T03:44:44;127.30;;;55.20;;
51764;SDS011;37835;53.256;6.456;2023-04-23T03:47:10;103.10;;;53.28;;
51764;SDS011;37835;53.256;6.456;2023-04-23T03:49:36;136.85;;;57.75;;
51764;SDS011;37835;53.256;6.456;2023-04-23T03:52:02;112.63;;;56.60;;
51764;SDS011;37835;53.256;6.456;2023-04-23T03:54:28;138.98;;;57.63;;
51764;SDS011;37835;53.256;6.456;2023-04-23T03:56:53;134.23;;;57.13;;
51764;SDS011;37835;53.256;6.456;2023-04-23T03:59:19;111.47;;;56.60;;
51764;SDS011;37835;53.256;6.456;2023-04-23T04:01:45;132.23;;;57.78;;
51764;SDS011;37835;53.256;6.456;2023-04-23T04:04:14;123.75;;;58.22;;
51764;SDS011;37835;53.256;6.456;2023-04-23T04:06:40;155.25;;;58.47;;
51764;SDS011;37835;53.256;6.456;2023-04-23T04:09:05;161.73;;;59.70;;
51764;SDS011;37835;53.256;6.456;2023-04-23T04:11:32;140.85;;;58.90;;
51764;SDS011;37835;53.256;6.456;2023-04-23T04:13:58;110.60;;;56.00;;
51764;SDS011;37835;53.256;6.456;2023-04-23T04:16:23;126.95;;;58.15;;
51764;SDS011;37835;53.256;6.456;2023-04-23T04:18:49;120.93;;;57.17;;
51764;SDS011;37835;53.256;6.456;2023-04-23T04:21:14;114.15;;;58.13;;
51764;SDS011;37835;53.256;6.456;2023-04-23T04:23:41;112.68;;;57.60;;
51764;SDS011;37835;53.256;6.456;2023-04-23T04:26:07;122.57;;;60.00;;
51764;SDS011;37835;53.256;6.456;2023-04-23T04:28:33;118.15;;;59.13;;
51764;SDS011;37835;53.256;6.456;2023-04-23T04:31:01;120.07;;;60.42;;
51764;SDS011;37835;53.256;6.456;2023-04-23T04:33:31;115.47;;;56.60;;
51764;SDS011;37835;53.256;6.456;2023-04-23T04:35:57;118.35;;;58.58;;
51764;SDS011;37835;53.256;6.456;2023-04-23T04:38:24;127.45;;;60.55;;
51764;SDS011;37835;53.256;6.456;2023-04-23T04:40:50;125.40;;;60.55;;
51764;SDS011;37835;53.256;6.456;2023-04-23T04:43:19;127.65;;;60.05;;
51764;SDS011;37835;53.256;6.456;2023-04-23T04:45:45;129.73;;;64.10;;
51764;SDS011;37835;53.256;6.456;2023-04-23T04:48:10;123.53;;;61.92;;
51764;SDS011;37835;53.256;6.456;2023-04-23T04:50:36;139.00;;;65.10;;
51764;SDS011;37835;53.256;6.456;2023-04-23T04:53:01;140.10;;;64.20;;
51764;SDS011;37835;53.256;6.456;2023-04-23T04:55:27;131.15;;;65.03;;
51764;SDS011;37835;53.256;6.456;2023-04-23T04:57:53;128.63;;;64.28;;
51764;SDS011;37835;53.256;6.456;2023-04-23T05:00:21;120.78;;;59.08;;
51764;SDS011;37835;53.256;6.456;2023-04-23T05:02:51;134.13;;;65.97;;
51764;SDS011;37835;53.256;6.456;2023-04-23T05:05:18;143.95;;;67.53;;
51764;SDS011;37835;53.256;6.456;2023-04-23T05:07:44;133.93;;;64.75;;
51764;SDS011;37835;53.256;6.456;2023-04-23T05:10:10;150.13;;;67.60;;
51764;SDS011;37835;53.256;6.456;2023-04-23T05:12:36;142.98;;;68.25;;
51764;SDS011;37835;53.256;6.456;2023-04-23T05:15:05;151.65;;;68.50;;
51764;SDS011;37835;53.256;6.456;2023-04-23T05:17:32;138.27;;;67.32;;
51764;SDS011;37835;53.256;6.456;2023-04-23T05:19:57;138.18;;;67.32;;
51764;SDS011;37835;53.256;6.456;2023-04-23T05:22:23;136.07;;;67.22;;
51764;SDS011;37835;53.256;6.456;2023-04-23T05:24:48;136.25;;;69.57;;
51764;SDS011;37835;53.256;6.456;2023-04-23T05:27:14;132.15;;;65.45;;
51764;SDS011;37835;53.256;6.456;2023-04-23T05:29:39;130.88;;;67.05;;
51764;SDS011;37835;53.256;6.456;2023-04-23T05:32:05;128.20;;;64.78;;
51764;SDS011;37835;53.256;6.456;2023-04-23T05:34:30;125.75;;;64.43;;
51764;SDS011;37835;53.256;6.456;2023-04-23T05:36:56;110.53;;;58.00;;
51764;SDS011;37835;53.256;6.456;2023-04-23T05:39:21;116.35;;;60.33;;
51764;SDS011;37835;53.256;6.456;2023-04-23T05:41:47;118.43;;;61.25;;
51764;SDS011;37835;53.256;6.456;2023-04-23T05:44:13;108.82;;;58.22;;
51764;SDS011;37835;53.256;6.456;2023-04-23T05:46:38;106.20;;;57.58;;
51764;SDS011;37835;53.256;6.456;2023-04-23T05:49:04;106.25;;;58.10;;
51764;SDS011;37835;53.256;6.456;2023-04-23T05:51:30;106.38;;;57.83;;
51764;SDS011;37835;53.256;6.456;2023-04-23T05:53:56;106.45;;;58.10;;
51764;SDS011;37835;53.256;6.456;2023-04-23T05:56:21;102.70;;;55.05;;
51764;SDS011;37835;53.256;6.456;2023-04-23T05:58:47;99.25;;;56.50;;
51764;SDS011;37835;53.256;6.456;2023-04-23T06:01:12;100.53;;;56.70;;
51764;SDS011;37835;53.256;6.456;2023-04-23T06:03:38;102.80;;;56.85;;
51764;SDS011;37835;53.256;6.456;2023-04-23T06:06:06;103.93;;;56.75;;
51764;SDS011;37835;53.256;6.456;2023-04-23T06:08:32;96.25;;;55.00;;
51764;SDS011;37835;53.256;6.456;2023-04-23T06:10:57;99.65;;;55.15;;
51764;SDS011;37835;53.256;6.456;2023-04-23T06:13:24;95.32;;;54.75;;
51764;SDS011;37835;53.256;6.456;2023-04-23T06:15:49;93.70;;;54.13;;
51764;SDS011;37835;53.256;6.456;2023-04-23T06:18:15;96.78;;;54.58;;
51764;SDS011;37835;53.256;6.456;2023-04-23T06:20:40;92.63;;;53.90;;
51764;SDS011;37835;53.256;6.456;2023-04-23T06:23:06;95.40;;;54.85;;
51764;SDS011;37835;53.256;6.456;2023-04-23T06:25:32;100.90;;;57.33;;
51764;SDS011;37835;53.256;6.456;2023-04-23T06:27:57;102.45;;;57.65;;
51764;SDS011;37835;53.256;6.456;2023-04-23T06:30:23;100.75;;;57.55;;
51764;SDS011;37835;53.256;6.456;2023-04-23T06:32:48;100.43;;;57.58;;
51764;SDS011;37835;53.256;6.456;2023-04-23T06:35:14;107.63;;;60.00;;
51764;SDS011;37835;53.256;6.456;2023-04-23T06:37:40;106.82;;;58.63;;
51764;SDS011;37835;53.256;6.456;2023-04-23T06:40:05;106.13;;;60.17;;
51764;SDS011;37835;53.256;6.456;2023-04-23T06:42:31;104.80;;;60.05;;
51764;SDS011;37835;53.256;6.456;2023-04-23T06:44:57;107.18;;;59.60;;
51764;SDS011;37835;53.256;6.456;2023-04-23T06:47:23;103.47;;;59.88;;
51764;SDS011;37835;53.256;6.456;2023-04-23T06:49:49;107.47;;;61.65;;
51764;SDS011;37835;53.256;6.456;2023-04-23T06:52:15;103.00;;;58.75;;
51764;SDS011;37835;53.256;6.456;2023-04-23T06:54:40;105.75;;;61.17;;
51764;SDS011;37835;53.256;6.456;2023-04-23T06:57:06;108.22;;;61.50;;
51764;SDS011;37835;53.256;6.456;2023-04-23T06:59:31;109.38;;;59.97;;
51764;SDS011;37835;53.256;6.456;2023-04-23T07:01:57;105.82;;;60.75;;
51764;SDS011;37835;53.256;6.456;2023-04-23T07:04:22;105.45;;;61.10;;
51764;SDS011;37835;53.256;6.456;2023-04-23T07:06:48;101.18;;;58.03;;
51764;SDS011;37835;53.256;6.456;2023-04-23T07:09:14;101.18;;;56.70;;
51764;SDS011;37835;53.256;6.456;2023-04-23T07:11:39;95.03;;;56.05;;
51764;SDS011;37835;53.256;6.456;2023-04-23T07:14:05;97.63;;;56.83;;
51764;SDS011;37835;53.256;6.456;2023-04-23T07:16:30;91.57;;;54.50;;
51764;SDS011;37835;53.256;6.456;2023-04-23T07:18:58;94.43;;;55.90;;
51764;SDS011;37835;53.256;6.456;2023-04-23T07:21:26;90.30;;;54.40;;
51764;SDS011;37835;53.256;6.456;2023-04-23T07:23:53;92.10;;;54.75;;
51764;SDS011;37835;53.256;6.456;2023-04-23T07:26:20;85.63;;;52.08;;
51764;SDS011;37835;53.256;6.456;2023-04-23T07:28:46;86.00;;;52.22;;
51764;SDS011;37835;53.256;6.456;2023-04-23T07:31:12;81.90;;;50.55;;
51764;SDS011;37835;53.256;6.456;2023-04-23T07:33:38;81.32;;;50.30;;
51764;SDS011;37835;53.256;6.456;2023-04-23T07:36:04;79.20;;;48.83;;
51764;SDS011;37835;53.256;6.456;2023-04-23T07:38:29;80.22;;;47.88;;
51764;SDS011;37835;53.256;6.456;2023-04-23T07:40:55;77.35;;;48.42;;
51764;SDS011;37835;53.256;6.456;2023-04-23T07:43:21;74.35;;;47.25;;
51764;SDS011;37835;53.256;6.456;2023-04-23T07:45:46;76.00;;;47.60;;
51764;SDS011;37835;53.256;6.456;2023-04-23T07:48:12;76.32;;;48.38;;
51764;SDS011;37835;53.256;6.456;2023-04-23T07:50:37;73.82;;;46.25;;
51764;SDS011;37835;53.256;6.456;2023-04-23T07:53:03;72.18;;;47.03;;
51764;SDS011;37835;53.256;6.456;2023-04-23T07:55:28;69.40;;;45.25;;
51764;SDS011;37835;53.256;6.456;2023-04-23T07:57:54;68.50;;;46.03;;
51764;SDS011;37835;53.256;6.456;2023-04-23T08:00:20;72.50;;;46.17;;
51764;SDS011;37835;53.256;6.456;2023-04-23T08:02:45;67.68;;;44.40;;
51764;SDS011;37835;53.256;6.456;2023-04-23T08:05:11;66.78;;;44.50;;
51764;SDS011;37835;53.256;6.456;2023-04-23T08:07:36;68.03;;;44.72;;
51764;SDS011;37835;53.256;6.456;2023-04-23T08:10:02;65.03;;;44.25;;
51764;SDS011;37835;53.256;6.456;2023-04-23T08:12:30;59.30;;;39.63;;
51764;SDS011;37835;53.256;6.456;2023-04-23T08:14:57;59.17;;;39.38;;
51764;SDS011;37835;53.256;6.456;2023-04-23T08:17:23;56.58;;;38.25;;
51764;SDS011;37835;53.256;6.456;2023-04-23T08:19:49;54.55;;;38.33;;
51764;SDS011;37835;53.256;6.456;2023-04-23T08:22:14;55.20;;;37.33;;
51764;SDS011;37835;53.256;6.456;2023-04-23T08:24:41;52.75;;;36.28;;
51764;SDS011;37835;53.256;6.456;2023-04-23T08:27:08;52.35;;;37.25;;
51764;SDS011;37835;53.256;6.456;2023-04-23T08:29:34;58.85;;;38.38;;
51764;SDS011;37835;53.256;6.456;2023-04-23T08:32:00;57.15;;;37.33;;
51764;SDS011;37835;53.256;6.456;2023-04-23T08:34:25;48.53;;;35.42;;
51764;SDS011;37835;53.256;6.456;2023-04-23T08:36:51;45.53;;;32.28;;
51764;SDS011;37835;53.256;6.456;2023-04-23T08:39:16;47.15;;;33.75;;
51764;SDS011;37835;53.256;6.456;2023-04-23T08:41:42;43.90;;;31.52;;
51764;SDS011;37835;53.256;6.456;2023-04-23T08:46:36;43.28;;;31.27;;
51764;SDS011;37835;53.256;6.456;2023-04-23T08:49:07;41.92;;;30.20;;
51764;SDS011;37835;53.256;6.456;2023-04-23T08:51:37;42.30;;;30.88;;
51764;SDS011;37835;53.256;6.456;2023-04-23T08:54:06;38.70;;;29.20;;
51764;SDS011;37835;53.256;6.456;2023-04-23T08:56:38;36.55;;;27.00;;
51764;SDS011;37835;53.256;6.456;2023-04-23T08:59:05;37.42;;;27.27;;
51764;SDS011;37835;53.256;6.456;2023-04-23T09:01:31;38.92;;;28.08;;
51764;SDS011;37835;53.256;6.456;2023-04-23T09:03:58;34.97;;;26.00;;
51764;SDS011;37835;53.256;6.456;2023-04-23T09:06:25;35.85;;;26.15;;
51764;SDS011;37835;53.256;6.456;2023-04-23T09:08:50;35.55;;;25.02;;
51764;SDS011;37835;53.256;6.456;2023-04-23T09:11:17;36.00;;;24.88;;
51764;SDS011;37835;53.256;6.456;2023-04-23T09:13:43;33.90;;;23.70;;
51764;SDS011;37835;53.256;6.456;2023-04-23T09:16:09;30.75;;;23.15;;
51764;SDS011;37835;53.256;6.456;2023-04-23T09:18:35;35.40;;;23.10;;
51764;SDS011;37835;53.256;6.456;2023-04-23T09:21:01;33.30;;;23.75;;
51764;SDS011;37835;53.256;6.456;2023-04-23T09:23:28;32.28;;;22.48;;
51764;SDS011;37835;53.256;6.456;2023-04-23T09:25:55;28.23;;;20.83;;
51764;SDS011;37835;53.256;6.456;2023-04-23T09:28:21;30.30;;;20.75;;
51764;SDS011;37835;53.256;6.456;2023-04-23T09:31:03;26.75;;;20.92;;
51764;SDS011;37835;53.256;6.456;2023-04-23T09:33:30;27.20;;;20.30;;
51764;SDS011;37835;53.256;6.456;2023-04-23T09:36:03;27.23;;;19.65;;
51764;SDS011;37835;53.256;6.456;2023-04-23T09:38:33;29.98;;;20.48;;
51764;SDS011;37835;53.256;6.456;2023-04-23T09:41:09;24.83;;;18.33;;
51764;SDS011;37835;53.256;6.456;2023-04-23T09:43:48;22.70;;;17.45;;
51764;SDS011;37835;53.256;6.456;2023-04-23T09:46:13;19.85;;;15.50;;
51764;SDS011;37835;53.256;6.456;2023-04-23T09:48:40;20.70;;;15.02;;
51764;SDS011;37835;53.256;6.456;2023-04-23T09:51:10;24.88;;;16.40;;
51764;SDS011;37835;53.256;6.456;2023-04-23T09:53:41;23.40;;;16.25;;
51764;SDS011;37835;53.256;6.456;2023-04-23T09:56:11;21.70;;;14.70;;
51764;SDS011;37835;53.256;6.456;2023-04-23T09:58:36;19.25;;;14.63;;
51764;SDS011;37835;53.256;6.456;2023-04-23T10:01:05;20.45;;;13.75;;
51764;SDS011;37835;53.256;6.456;2023-04-23T10:03:32;19.50;;;13.95;;
51764;SDS011;37835;53.256;6.456;2023-04-23T10:05:58;22.45;;;14.80;;
51764;SDS011;37835;53.256;6.456;2023-04-23T10:08:23;15.07;;;12.10;;
51764;SDS011;37835;53.256;6.456;2023-04-23T10:10:50;16.33;;;11.73;;
51764;SDS011;37835;53.256;6.456;2023-04-23T10:13:16;17.08;;;11.40;;
51764;SDS011;37835;53.256;6.456;2023-04-23T10:15:42;21.25;;;12.43;;
51764;SDS011;37835;53.256;6.456;2023-04-23T10:18:11;17.58;;;12.15;;
51764;SDS011;37835;53.256;6.456;2023-04-23T10:20:39;20.42;;;12.75;;
51764;SDS011;37835;53.256;6.456;2023-04-23T10:23:05;14.73;;;10.90;;
51764;SDS011;37835;53.256;6.456;2023-04-23T10:25:33;18.90;;;12.30;;
51764;SDS011;37835;53.256;6.456;2023-04-23T10:28:03;18.23;;;11.57;;
51764;SDS011;37835;53.256;6.456;2023-04-23T10:30:31;21.50;;;12.88;;
51764;SDS011;37835;53.256;6.456;2023-04-23T10:33:00;17.70;;;10.63;;
51764;SDS011;37835;53.256;6.456;2023-04-23T10:35:26;14.52;;;9.75;;
51764;SDS011;37835;53.256;6.456;2023-04-23T10:37:52;17.15;;;10.32;;
51764;SDS011;37835;53.256;6.456;2023-04-23T10:40:19;15.85;;;8.13;;
51764;SDS011;37835;53.256;6.456;2023-04-23T10:42:51;16.45;;;7.45;;
51764;SDS011;37835;53.256;6.456;2023-04-23T10:45:18;14.65;;;5.65;;
51764;SDS011;37835;53.256;6.456;2023-04-23T10:47:45;9.18;;;4.93;;
51764;SDS011;37835;53.256;6.456;2023-04-23T10:52:43;13.25;;;5.50;;
51764;SDS011;37835;53.256;6.456;2023-04-23T10:55:15;9.02;;;4.72;;
51764;SDS011;37835;53.256;6.456;2023-04-23T10:58:02;10.90;;;5.45;;
51764;SDS011;37835;53.256;6.456;2023-04-23T11:00:42;11.35;;;5.55;;
51764;SDS011;37835;53.256;6.456;2023-04-23T11:06:06;10.77;;;4.82;;
51764;SDS011;37835;53.256;6.456;2023-04-23T11:08:33;8.88;;;4.03;;
51764;SDS011;37835;53.256;6.456;2023-04-23T11:11:00;8.93;;;3.40;;
51764;SDS011;37835;53.256;6.456;2023-04-23T11:13:30;12.00;;;4.53;;
51764;SDS011;37835;53.256;6.456;2023-04-23T11:16:15;9.68;;;4.10;;
51764;SDS011;37835;53.256;6.456;2023-04-23T11:18:55;11.05;;;4.38;;
51764;SDS011;37835;53.256;6.456;2023-04-23T11:21:21;10.73;;;4.60;;
51764;SDS011;37835;53.256;6.456;2023-04-23T11:23:46;10.05;;;4.10;;
51764;SDS011;37835;53.256;6.456;2023-04-23T11:26:14;9.18;;;3.80;;
51764;SDS011;37835;53.256;6.456;2023-04-23T11:28:42;9.32;;;4.35;;
51764;SDS011;37835;53.256;6.456;2023-04-23T11:31:08;7.95;;;3.33;;
51764;SDS011;37835;53.256;6.456;2023-04-23T11:33:35;6.72;;;3.15;;
51764;SDS011;37835;53.256;6.456;2023-04-23T11:36:02;10.13;;;3.20;;
51764;SDS011;37835;53.256;6.456;2023-04-23T11:38:31;12.10;;;3.15;;
51764;SDS011;37835;53.256;6.456;2023-04-23T11:41:00;7.50;;;2.88;;
51764;SDS011;37835;53.256;6.456;2023-04-23T11:43:26;9.27;;;2.85;;
51764;SDS011;37835;53.256;6.456;2023-04-23T11:45:53;8.80;;;2.65;;
51764;SDS011;37835;53.256;6.456;2023-04-23T11:48:19;8.02;;;2.45;;
51764;SDS011;37835;53.256;6.456;2023-04-23T11:50:45;7.32;;;2.20;;
51764;SDS011;37835;53.256;6.456;2023-04-23T11:53:11;9.23;;;2.40;;
51764;SDS011;37835;53.256;6.456;2023-04-23T11:55:36;5.93;;;2.03;;
51764;SDS011;37835;53.256;6.456;2023-04-23T11:58:02;4.82;;;1.73;;
51764;SDS011;37835;53.256;6.456;2023-04-23T12:00:28;6.53;;;1.98;;
51764;SDS011;37835;53.256;6.456;2023-04-23T12:02:58;7.82;;;2.63;;
51764;SDS011;37835;53.256;6.456;2023-04-23T12:05:32;5.05;;;1.70;;
51764;SDS011;37835;53.256;6.456;2023-04-23T12:10:51;6.65;;;1.92;;
51764;SDS011;37835;53.256;6.456;2023-04-23T12:13:20;7.07;;;2.13;;
51764;SDS011;37835;53.256;6.456;2023-04-23T12:15:51;4.25;;;1.58;;
51764;SDS011;37835;53.256;6.456;2023-04-23T12:18:17;8.23;;;2.17;;
51764;SDS011;37835;53.256;6.456;2023-04-23T12:20:43;9.27;;;1.60;;
51764;SDS011;37835;53.256;6.456;2023-04-23T12:23:10;6.55;;;1.85;;
51764;SDS011;37835;53.256;6.456;2023-04-23T12:25:36;7.00;;;1.80;;
51764;SDS011;37835;53.256;6.456;2023-04-23T12:28:05;9.02;;;1.92;;
51764;SDS011;37835;53.256;6.456;2023-04-23T12:30:32;8.05;;;1.88;;
51764;SDS011;37835;53.256;6.456;2023-04-23T12:32:59;4.03;;;1.50;;
51764;SDS011;37835;53.256;6.456;2023-04-23T12:38:24;5.32;;;1.60;;
51764;SDS011;37835;53.256;6.456;2023-04-23T12:40:57;5.43;;;1.55;;
51764;SDS011;37835;53.256;6.456;2023-04-23T12:43:24;5.90;;;1.63;;
51764;SDS011;37835;53.256;6.456;2023-04-23T12:45:55;5.85;;;1.50;;
51764;SDS011;37835;53.256;6.456;2023-04-23T12:48:20;7.53;;;1.73;;
51764;SDS011;37835;53.256;6.456;2023-04-23T12:50:47;10.90;;;2.25;;
51764;SDS011;37835;53.256;6.456;2023-04-23T12:53:12;4.13;;;1.58;;
51764;SDS011;37835;53.256;6.456;2023-04-23T12:55:38;5.88;;;1.67;;
51764;SDS011;37835;53.256;6.456;2023-04-23T12:58:06;6.95;;;1.45;;
51764;SDS011;37835;53.256;6.456;2023-04-23T13:00:31;5.95;;;1.42;;
51764;SDS011;37835;53.256;6.456;2023-04-23T13:02:57;8.80;;;1.65;;
51764;SDS011;37835;53.256;6.456;2023-04-23T13:05:23;4.75;;;1.30;;
51764;SDS011;37835;53.256;6.456;2023-04-23T13:07:48;4.78;;;1.08;;
51764;SDS011;37835;53.256;6.456;2023-04-23T13:10:14;6.60;;;1.25;;
51764;SDS011;37835;53.256;6.456;2023-04-23T13:12:40;4.50;;;1.30;;
51764;SDS011;37835;53.256;6.456;2023-04-23T13:15:07;5.25;;;1.42;;
51764;SDS011;37835;53.256;6.456;2023-04-23T13:17:33;6.65;;;1.50;;
51764;SDS011;37835;53.256;6.456;2023-04-23T13:20:00;3.63;;;1.35;;
51764;SDS011;37835;53.256;6.456;2023-04-23T13:22:25;4.15;;;1.13;;
51764;SDS011;37835;53.256;6.456;2023-04-23T13:24:56;10.15;;;2.15;;
51764;SDS011;37835;53.256;6.456;2023-04-23T13:27:25;4.35;;;1.35;;
51764;SDS011;37835;53.256;6.456;2023-04-23T13:29:53;7.05;;;1.52;;
51764;SDS011;37835;53.256;6.456;2023-04-23T13:32:22;4.85;;;1.13;;
51764;SDS011;37835;53.256;6.456;2023-04-23T13:34:49;4.28;;;1.02;;
51764;SDS011;37835;53.256;6.456;2023-04-23T13:37:15;7.47;;;1.27;;
51764;SDS011;37835;53.256;6.456;2023-04-23T13:39:41;4.50;;;1.45;;
51764;SDS011;37835;53.256;6.456;2023-04-23T13:42:06;4.35;;;1.05;;
51764;SDS011;37835;53.256;6.456;2023-04-23T13:44:32;5.18;;;1.30;;
51764;SDS011;37835;53.256;6.456;2023-04-23T13:46:57;3.55;;;1.08;;
51764;SDS011;37835;53.256;6.456;2023-04-23T13:49:23;7.60;;;1.30;;
51764;SDS011;37835;53.256;6.456;2023-04-23T13:51:50;6.28;;;1.40;;
51764;SDS011;37835;53.256;6.456;2023-04-23T13:54:18;9.50;;;1.27;;
51764;SDS011;37835;53.256;6.456;2023-04-23T13:56:44;4.57;;;1.10;;
51764;SDS011;37835;53.256;6.456;2023-04-23T13:59:10;5.57;;;1.10;;
51764;SDS011;37835;53.256;6.456;2023-04-23T14:01:36;3.53;;;1.23;;
51764;SDS011;37835;53.256;6.456;2023-04-23T14:04:02;5.13;;;1.30;;
51764;SDS011;37835;53.256;6.456;2023-04-23T14:06:28;5.90;;;1.70;;
51764;SDS011;37835;53.256;6.456;2023-04-23T14:08:53;4.72;;;1.35;;
51764;SDS011;37835;53.256;6.456;2023-04-23T14:11:19;5.78;;;1.20;;
51764;SDS011;37835;53.256;6.456;2023-04-23T14:13:46;4.07;;;1.00;;
51764;SDS011;37835;53.256;6.456;2023-04-23T14:16:12;4.85;;;1.42;;
51764;SDS011;37835;53.256;6.456;2023-04-23T14:18:38;5.63;;;1.55;;
51764;SDS011;37835;53.256;6.456;2023-04-23T14:21:04;6.20;;;1.20;;
51764;SDS011;37835;53.256;6.456;2023-04-23T14:26:03;5.07;;;1.10;;
51764;SDS011;37835;53.256;6.456;2023-04-23T14:28:33;4.93;;;1.33;;
51764;SDS011;37835;53.256;6.456;2023-04-23T14:31:03;8.95;;;1.98;;
51764;SDS011;37835;53.256;6.456;2023-04-23T14:33:29;3.78;;;1.10;;
51764;SDS011;37835;53.256;6.456;2023-04-23T14:35:55;7.47;;;1.65;;